Time;durP1;ratioP1;P1;durP2;ratioP2;P2;SDS_P1;SDS_P2;PMS_P1;PMS_P2;Temp;Humidity;BMP_temperature;BMP_pressure;BME280_temperature;BME280_humidity;BME280_pressure;Samples;Min_cycle;Max_cycle;Signal;HPM_P1;HPM_P2
2022/10/25 00:02:24;;;;;;;0.40;0.40;;;15.20;99.90;;;;;;5031351;28;20758;-73
2022/10/25 00:05:14;;;;;;;0.40;0.40;;;15.20;99.90;;;;;;5031428;28;20210;-72
2022/10/25 00:08:03;;;;;;;0.50;0.50;;;15.20;99.90;;;;;;5032146;28;20252;-73
2022/10/25 00:10:52;;;;;;;0.40;0.40;;;15.10;99.90;;;;;;5030891;28;20421;-75
2022/10/25 00:13:40;;;;;;;0.40;0.40;;;15.20;99.90;;;;;;5031368;28;20704;-71
2022/10/25 00:16:30;;;;;;;0.40;0.40;;;15.10;99.90;;;;;;5032018;28;20464;-72
2022/10/25 00:19:18;;;;;;;0.40;0.40;;;15.10;99.90;;;;;;5031985;28;20304;-72
2022/10/25 00:22:06;;;;;;;0.40;0.40;;;15.10;99.90;;;;;;5036012;28;20319;-72
2022/10/25 00:24:54;;;;;;;0.40;0.40;;;15.00;99.90;;;;;;5035782;28;20946;-72
2022/10/25 00:27:44;;;;;;;0.40;0.40;;;15.10;99.90;;;;;;5036003;28;20251;-72
2022/10/25 00:30:32;;;;;;;0.40;0.40;;;15.10;99.90;;;;;;5035602;28;20256;-74
2022/10/25 00:33:20;;;;;;;0.40;0.40;;;15.00;99.90;;;;;;5035099;28;20279;-73
2022/10/25 00:36:11;;;;;;;0.40;0.40;;;15.00;99.90;;;;;;5035843;28;20503;-71
2022/10/25 00:38:59;;;;;;;0.40;0.40;;;15.00;99.90;;;;;;5035785;28;20263;-74
2022/10/25 00:41:47;;;;;;;0.40;0.40;;;15.00;99.90;;;;;;5035690;28;20301;-71
2022/10/25 00:44:50;;;;;;;0.40;0.40;;;15.00;99.90;;;;;;5035597;28;20468;-74
2022/10/25 00:47:47;;;;;;;0.40;0.40;;;15.00;99.90;;;;;;5035779;28;20220;-71
2022/10/25 00:50:45;;;;;;;0.40;0.40;;;15.10;99.90;;;;;;5034585;28;20431;-70
2022/10/25 00:53:36;;;;;;;0.40;0.40;;;15.00;99.90;;;;;;5034493;28;20224;-72
2022/10/25 00:56:27;;;;;;;0.40;0.40;;;15.10;99.90;;;;;;5037149;28;20285;-73
2022/10/25 00:59:21;;;;;;;0.60;0.60;;;15.20;99.90;;;;;;5051079;28;20213;-73
2022/10/25 01:02:11;;;;;;;0.40;0.40;;;15.20;99.90;;;;;;5034670;28;20240;-73
2022/10/25 01:05:00;;;;;;;0.40;0.40;;;15.10;99.90;;;;;;5049030;28;20221;-72
2022/10/25 01:07:48;;;;;;;0.40;0.40;;;15.20;99.90;;;;;;5053948;28;20954;-74
2022/10/25 01:10:37;;;;;;;0.40;0.40;;;15.20;99.90;;;;;;5054970;28;20663;-72
2022/10/25 01:13:25;;;;;;;0.40;0.40;;;15.20;99.90;;;;;;5055980;28;20623;-71
2022/10/25 01:16:20;;;;;;;0.40;0.40;;;15.20;99.90;;;;;;5055492;28;20206;-75
2022/10/25 01:19:32;;;;;;;0.40;0.40;;;15.20;99.90;;;;;;5054064;28;20423;-74
2022/10/25 01:22:34;;;;;;;0.40;0.40;;;15.20;99.90;;;;;;5054496;28;20229;-72
2022/10/25 01:25:45;;;;;;;0.40;0.40;;;15.20;99.90;;;;;;5054370;28;20221;-72
2022/10/25 01:28:43;;;;;;;0.40;0.40;;;15.20;99.90;;;;;;5055198;28;20198;-71
2022/10/25 01:31:38;;;;;;;0.40;0.40;;;15.20;99.90;;;;;;5053151;28;20428;-74
2022/10/25 01:34:30;;;;;;;0.40;0.40;;;15.30;99.90;;;;;;5054574;28;20335;-72
2022/10/25 01:37:26;;;;;;;0.40;0.40;;;15.30;99.90;;;;;;5054162;28;20201;-71
2022/10/25 01:40:23;;;;;;;0.40;0.40;;;15.20;99.90;;;;;;5053517;28;20285;-70
2022/10/25 01:43:20;;;;;;;0.40;0.40;;;15.20;99.90;;;;;;5054747;28;20252;-72
2022/10/25 01:46:18;;;;;;;0.40;0.40;;;15.30;99.90;;;;;;5054619;28;20245;-73
2022/10/25 01:49:13;;;;;;;0.40;0.40;;;15.20;99.90;;;;;;5055349;28;20416;-71
2022/10/25 01:52:02;;;;;;;0.40;0.40;;;15.20;99.90;;;;;;5054492;28;20448;-71
2022/10/25 01:54:51;;;;;;;0.40;0.40;;;15.30;99.90;;;;;;5053711;28;20198;-72
2022/10/25 01:57:57;;;;;;;0.40;0.40;;;15.30;99.90;;;;;;5054192;28;20277;-73
2022/10/25 02:00:53;;;;;;;0.40;0.40;;;15.30;99.90;;;;;;5038117;28;20558;-74
2022/10/25 02:03:48;;;;;;;0.40;0.40;;;15.20;99.90;;;;;;5028763;28;20297;-71
2022/10/25 02:06:47;;;;;;;0.40;0.40;;;15.20;99.90;;;;;;5033956;28;20206;-74
2022/10/25 02:09:47;;;;;;;0.40;0.40;;;15.20;99.90;;;;;;5033294;28;20194;-71
2022/10/25 02:12:42;;;;;;;0.40;0.40;;;15.20;99.90;;;;;;5034020;28;20214;-72
2022/10/25 02:15:39;;;;;;;0.40;0.40;;;15.20;99.90;;;;;;5034119;28;20198;-74
2022/10/25 02:18:30;;;;;;;0.40;0.40;;;15.20;99.90;;;;;;5033827;28;20428;-71
2022/10/25 02:21:27;;;;;;;0.40;0.40;;;15.10;99.90;;;;;;5032741;28;20202;-72
2022/10/25 02:24:19;;;;;;;0.40;0.40;;;15.20;99.90;;;;;;5033264;28;20213;-74
2022/10/25 02:27:11;;;;;;;0.40;0.40;;;15.20;99.90;;;;;;5032150;28;20433;-74
2022/10/25 02:29:59;;;;;;;0.40;0.40;;;15.20;99.90;;;;;;5033077;28;20689;-74
2022/10/25 02:32:47;;;;;;;0.40;0.40;;;15.20;99.90;;;;;;5033328;28;20456;-72
2022/10/25 02:35:37;;;;;;;0.50;0.50;;;15.20;99.90;;;;;;5033883;28;20453;-72
2022/10/25 02:38:25;;;;;;;0.40;0.40;;;15.20;99.90;;;;;;5033414;28;20198;-71
2022/10/25 02:41:14;;;;;;;0.40;0.40;;;15.20;99.90;;;;;;5033101;28;20679;-72
2022/10/25 02:44:02;;;;;;;0.40;0.40;;;15.10;99.90;;;;;;5033240;28;20210;-70
2022/10/25 02:46:50;;;;;;;0.40;0.40;;;15.10;99.90;;;;;;5033925;28;20198;-72
2022/10/25 02:49:38;;;;;;;0.40;0.40;;;15.10;99.90;;;;;;5033606;28;20206;-75
2022/10/25 02:52:26;;;;;;;0.40;0.40;;;15.10;99.90;;;;;;5033540;28;20230;-73
2022/10/25 02:55:14;;;;;;;0.40;0.40;;;15.00;99.90;;;;;;5034215;28;20190;-71
2022/10/25 02:58:04;;;;;;;0.40;0.40;;;15.10;99.90;;;;;;5033288;28;20205;-71
2022/10/25 03:00:52;;;;;;;0.40;0.40;;;15.10;99.90;;;;;;5033735;28;20646;-72
2022/10/25 03:03:41;;;;;;;0.40;0.40;;;14.90;99.90;;;;;;5031970;28;20221;-72
2022/10/25 03:06:29;;;;;;;0.40;0.40;;;15.00;99.90;;;;;;5032760;28;20463;-72
2022/10/25 03:09:17;;;;;;;0.50;0.50;;;15.00;99.90;;;;;;5032130;28;20202;-72
2022/10/25 03:12:05;;;;;;;0.40;0.40;;;15.10;99.90;;;;;;5034158;28;20220;-72
2022/10/25 03:14:54;;;;;;;0.40;0.40;;;15.00;99.90;;;;;;5033914;28;20198;-73
2022/10/25 03:17:42;;;;;;;0.40;0.40;;;15.00;99.90;;;;;;5034587;28;20202;-72
2022/10/25 03:20:31;;;;;;;0.40;0.40;;;15.00;99.90;;;;;;5033595;28;20450;-75
2022/10/25 03:23:19;;;;;;;0.40;0.40;;;15.00;99.90;;;;;;5034522;28;20232;-71
2022/10/25 03:26:07;;;;;;;0.40;0.40;;;15.00;99.90;;;;;;5032733;28;20464;-71
2022/10/25 03:28:55;;;;;;;0.53;0.53;;;15.00;99.90;;;;;;5031990;28;20456;-71
2022/10/25 03:31:44;;;;;;;0.40;0.40;;;15.00;99.90;;;;;;5032116;28;20699;-74
2022/10/25 03:34:32;;;;;;;0.40;0.40;;;15.00;99.90;;;;;;5033476;28;20431;-72
2022/10/25 03:37:20;;;;;;;0.40;0.40;;;15.00;99.90;;;;;;5033128;28;20209;-74
2022/10/25 03:40:09;;;;;;;0.40;0.40;;;15.00;99.90;;;;;;5032946;28;20427;-72
2022/10/25 03:42:57;;;;;;;0.40;0.40;;;15.00;99.90;;;;;;5031953;28;20226;-71
2022/10/25 03:45:45;;;;;;;0.40;0.40;;;15.00;99.90;;;;;;5032392;28;20218;-74
2022/10/25 03:48:35;;;;;;;0.40;0.40;;;15.00;99.90;;;;;;5032571;28;20212;-73
2022/10/25 03:51:23;;;;;;;0.40;0.40;;;15.00;99.90;;;;;;5032006;28;20205;-72
2022/10/25 03:54:11;;;;;;;0.40;0.40;;;15.00;99.90;;;;;;5030623;28;20574;-71
2022/10/25 03:56:59;;;;;;;0.40;0.40;;;15.00;99.90;;;;;;5039666;28;20192;-73
2022/10/25 03:59:47;;;;;;;0.47;0.47;;;15.00;99.90;;;;;;5050680;28;20207;-73
2022/10/25 04:02:35;;;;;;;0.40;0.40;;;15.00;99.90;;;;;;5050914;28;20217;-72
2022/10/25 04:05:25;;;;;;;0.40;0.40;;;15.00;99.90;;;;;;5051542;28;20213;-72
2022/10/25 04:08:13;;;;;;;0.40;0.40;;;14.90;99.90;;;;;;5052541;28;20434;-71
2022/10/25 04:11:01;;;;;;;0.40;0.40;;;14.90;99.90;;;;;;5051408;28;20201;-73
2022/10/25 04:13:49;;;;;;;0.40;0.40;;;14.90;99.90;;;;;;5052980;28;20194;-72
2022/10/25 04:16:37;;;;;;;0.40;0.40;;;14.90;99.90;;;;;;5052740;28;20419;-74
2022/10/25 04:19:25;;;;;;;0.40;0.40;;;14.80;99.90;;;;;;5053032;28;20424;-72
2022/10/25 04:22:14;;;;;;;0.40;0.40;;;14.90;99.90;;;;;;5052575;28;20458;-71
2022/10/25 04:25:03;;;;;;;0.40;0.40;;;14.90;99.90;;;;;;5051916;28;20432;-75
2022/10/25 04:27:51;;;;;;;0.40;0.40;;;14.90;99.90;;;;;;5052108;28;21062;-72
2022/10/25 04:30:39;;;;;;;0.40;0.40;;;14.90;99.90;;;;;;5051941;28;20640;-72
2022/10/25 04:33:27;;;;;;;0.40;0.40;;;14.90;99.90;;;;;;5076607;22;20305;-67
2022/10/25 04:36:15;;;;;;;0.40;0.40;;;14.90;99.90;;;;;;5072243;28;20276;-67
2022/10/25 04:39:04;;;;;;;0.40;0.40;;;14.90;99.90;;;;;;5071141;28;20208;-66
2022/10/25 04:41:52;;;;;;;0.40;0.40;;;14.90;99.90;;;;;;5070967;28;20208;-67
2022/10/25 04:44:40;;;;;;;0.40;0.40;;;14.90;99.90;;;;;;5048972;28;20209;-67
2022/10/25 04:47:31;;;;;;;0.40;0.40;;;14.80;99.90;;;;;;5049504;28;20585;-67
2022/10/25 04:50:19;;;;;;;0.40;0.40;;;14.80;99.90;;;;;;5051287;28;20202;-66
2022/10/25 04:53:07;;;;;;;0.40;0.40;;;14.70;99.90;;;;;;5051476;28;20649;-66
2022/10/25 04:55:57;;;;;;;0.40;0.40;;;14.70;99.90;;;;;;5051345;28;20206;-67
2022/10/25 04:58:45;;;;;;;0.40;0.40;;;14.60;99.90;;;;;;5066888;28;20200;-66
2022/10/25 05:01:33;;;;;;;0.40;0.40;;;14.60;99.90;;;;;;5069679;28;20427;-71
2022/10/25 05:04:21;;;;;;;0.40;0.40;;;14.60;99.90;;;;;;5069411;28;20536;-66
2022/10/25 05:07:09;;;;;;;0.40;0.40;;;14.60;99.90;;;;;;5072499;28;20469;-66
2022/10/25 05:09:57;;;;;;;0.40;0.40;;;14.60;99.90;;;;;;5073444;28;20432;-66
2022/10/25 05:12:47;;;;;;;0.40;0.40;;;14.60;99.90;;;;;;5073663;28;20514;-66
2022/10/25 05:15:35;;;;;;;0.40;0.40;;;14.60;99.90;;;;;;5073020;28;20428;-67
2022/10/25 05:18:23;;;;;;;0.40;0.40;;;14.50;99.90;;;;;;5072480;28;20417;-66
2022/10/25 05:21:13;;;;;;;0.40;0.40;;;14.60;99.90;;;;;;5073819;28;20424;-66
2022/10/25 05:24:01;;;;;;;0.40;0.40;;;14.50;99.90;;;;;;5075057;28;20444;-66
2022/10/25 05:26:49;;;;;;;0.40;0.40;;;14.50;99.90;;;;;;5073758;28;20483;-66
2022/10/25 05:29:39;;;;;;;0.40;0.40;;;14.50;99.90;;;;;;5072996;28;20431;-66
2022/10/25 05:32:27;;;;;;;0.40;0.40;;;14.50;99.90;;;;;;5071729;28;20462;-67
2022/10/25 05:35:15;;;;;;;0.40;0.40;;;14.50;99.90;;;;;;5067997;28;20428;-66
2022/10/25 05:38:03;;;;;;;0.40;0.40;;;14.50;99.90;;;;;;5065110;28;20253;-66
2022/10/25 05:40:54;;;;;;;0.40;0.40;;;14.50;99.90;;;;;;5071481;28;20456;-65
2022/10/25 05:43:43;;;;;;;0.40;0.40;;;14.50;99.90;;;;;;5071541;28;20218;-67
2022/10/25 05:46:33;;;;;;;0.40;0.40;;;14.50;99.90;;;;;;5073725;28;20525;-66
2022/10/25 05:49:21;;;;;;;0.30;0.30;;;14.50;99.90;;;;;;5073195;28;20431;-66
2022/10/25 05:52:10;;;;;;;0.50;0.50;;;14.40;99.90;;;;;;5072923;28;20428;-66
2022/10/25 05:54:58;;;;;;;0.40;0.40;;;14.40;99.90;;;;;;5074433;28;20198;-66
2022/10/25 05:57:50;;;;;;;0.40;0.40;;;14.50;99.90;;;;;;5074888;28;20435;-66
2022/10/25 06:00:38;;;;;;;0.40;0.40;;;14.40;99.90;;;;;;5074111;28;20428;-65
2022/10/25 06:03:27;;;;;;;0.40;0.40;;;14.50;99.90;;;;;;5051535;28;20441;-66
2022/10/25 06:06:19;;;;;;;0.40;0.40;;;14.50;99.90;;;;;;5052642;28;21087;-65
2022/10/25 06:09:07;;;;;;;0.40;0.40;;;14.50;99.90;;;;;;5049075;28;20433;-65
2022/10/25 06:11:55;;;;;;;0.40;0.40;;;14.50;99.90;;;;;;5055395;28;20205;-66
2022/10/25 06:14:43;;;;;;;0.40;0.40;;;14.50;99.90;;;;;;5055687;28;20409;-67
2022/10/25 06:17:31;;;;;;;0.40;0.40;;;14.50;99.90;;;;;;5061795;28;20229;-66
2022/10/25 06:20:22;;;;;;;0.40;0.40;;;14.60;99.90;;;;;;5072992;28;20420;-65
2022/10/25 06:23:14;;;;;;;0.40;0.40;;;14.60;99.90;;;;;;5074206;28;20440;-65
2022/10/25 06:26:05;;;;;;;0.40;0.40;;;14.60;99.90;;;;;;5067175;28;20578;-67
2022/10/25 06:28:54;;;;;;;0.30;0.30;;;14.60;99.90;;;;;;5055185;28;20518;-66
2022/10/25 06:31:43;;;;;;;0.40;0.40;;;14.60;99.90;;;;;;5055717;28;20430;-65
2022/10/25 06:34:31;;;;;;;0.40;0.40;;;14.60;99.90;;;;;;5054171;28;20893;-66
2022/10/25 06:37:21;;;;;;;0.40;0.40;;;14.70;99.90;;;;;;5054220;28;20423;-66
2022/10/25 06:40:10;;;;;;;0.40;0.40;;;14.70;99.90;;;;;;5054828;28;20523;-66
2022/10/25 06:42:58;;;;;;;0.40;0.40;;;14.70;99.90;;;;;;5054128;28;20223;-67
2022/10/25 06:45:46;;;;;;;0.40;0.40;;;14.70;99.90;;;;;;5054326;28;20507;-65
2022/10/25 06:48:34;;;;;;;0.40;0.40;;;14.70;99.90;;;;;;5054462;28;20412;-66
2022/10/25 06:51:23;;;;;;;0.40;0.40;;;14.70;99.90;;;;;;5053400;28;20207;-65
2022/10/25 06:54:13;;;;;;;0.40;0.40;;;14.70;99.90;;;;;;5053861;28;20459;-65
2022/10/25 06:57:01;;;;;;;0.40;0.40;;;14.70;99.90;;;;;;5053412;28;20424;-65
2022/10/25 06:59:49;;;;;;;0.40;0.40;;;14.70;99.90;;;;;;5053129;28;20280;-65
2022/10/25 07:02:37;;;;;;;0.40;0.40;;;14.70;99.90;;;;;;5053762;28;20480;-65
2022/10/25 07:05:25;;;;;;;0.40;0.40;;;14.70;99.90;;;;;;5053730;28;20435;-66
2022/10/25 07:08:13;;;;;;;0.40;0.40;;;14.70;99.90;;;;;;5052942;28;20378;-67
2022/10/25 07:11:04;;;;;;;0.40;0.40;;;14.70;99.90;;;;;;5052970;28;20421;-65
2022/10/25 07:13:52;;;;;;;0.30;0.30;;;14.70;99.90;;;;;;5052816;28;20444;-68
2022/10/25 07:16:40;;;;;;;0.40;0.40;;;14.70;99.90;;;;;;5053244;28;20276;-65
2022/10/25 07:19:28;;;;;;;0.40;0.40;;;14.60;99.90;;;;;;5052692;28;20432;-65
2022/10/25 07:22:16;;;;;;;0.40;0.40;;;14.60;99.90;;;;;;5053108;28;20212;-65
2022/10/25 07:25:05;;;;;;;0.40;0.40;;;14.70;99.90;;;;;;5052963;28;20198;-65
2022/10/25 07:27:54;;;;;;;0.40;0.40;;;14.70;99.90;;;;;;5053519;28;20460;-65
2022/10/25 07:30:46;;;;;;;0.40;0.40;;;14.60;99.90;;;;;;5052688;28;20466;-65
2022/10/25 07:33:34;;;;;;;0.30;0.30;;;14.70;99.90;;;;;;5053971;28;20546;-65
2022/10/25 07:36:22;;;;;;;0.40;0.40;;;14.70;99.90;;;;;;5053927;28;20441;-65
2022/10/25 07:39:10;;;;;;;0.40;0.40;;;14.70;99.90;;;;;;5053082;28;20863;-65
2022/10/25 07:41:58;;;;;;;0.40;0.40;;;14.70;99.90;;;;;;5053428;28;20212;-66
2022/10/25 07:44:48;;;;;;;0.40;0.40;;;14.70;99.90;;;;;;5053118;28;20424;-65
2022/10/25 07:47:36;;;;;;;0.40;0.40;;;14.80;99.90;;;;;;5053077;28;20625;-66
2022/10/25 07:50:24;;;;;;;0.40;0.40;;;14.80;99.90;;;;;;5035327;28;20433;-66
2022/10/25 07:53:12;;;;;;;0.40;0.40;;;14.80;99.90;;;;;;5031838;28;20981;-66
2022/10/25 07:56:00;;;;;;;0.40;0.40;;;14.80;99.90;;;;;;5032114;28;20435;-66
2022/10/25 07:58:48;;;;;;;0.40;0.40;;;14.70;99.90;;;;;;5013908;28;20418;-65
2022/10/25 08:01:38;;;;;;;0.40;0.40;;;14.70;99.90;;;;;;5029329;28;20438;-66
2022/10/25 08:04:29;;;;;;;0.40;0.40;;;14.70;99.90;;;;;;5029153;28;21013;-65
2022/10/25 08:07:22;;;;;;;0.40;0.40;;;14.60;99.90;;;;;;5030780;28;20222;-66
2022/10/25 08:10:10;;;;;;;0.37;0.37;;;14.60;99.90;;;;;;5030726;28;20199;-65
2022/10/25 08:12:58;;;;;;;0.40;0.40;;;14.60;99.90;;;;;;5030977;28;20233;-65
2022/10/25 08:15:50;;;;;;;0.40;0.40;;;14.50;99.90;;;;;;5031139;28;20440;-66
2022/10/25 08:18:42;;;;;;;0.40;0.40;;;14.40;99.90;;;;;;5031277;28;20426;-66
2022/10/25 08:21:30;;;;;;;0.40;0.40;;;14.50;99.90;;;;;;5030864;28;20440;-66
2022/10/25 08:24:18;;;;;;;0.40;0.40;;;14.50;99.90;;;;;;5028158;28;20478;-66
2022/10/25 08:27:06;;;;;;;0.40;0.40;;;14.60;99.90;;;;;;5028800;28;20496;-66
2022/10/25 08:29:55;;;;;;;0.30;0.30;;;14.60;99.90;;;;;;5030369;28;20457;-66
2022/10/25 08:32:43;;;;;;;0.40;0.40;;;14.70;99.90;;;;;;5031723;28;20492;-66
2022/10/25 08:35:32;;;;;;;0.37;0.37;;;14.80;99.90;;;;;;5031431;28;20433;-66
2022/10/25 08:38:20;;;;;;;0.40;0.40;;;14.80;99.90;;;;;;5031398;28;20195;-66
2022/10/25 08:41:15;;;;;;;0.40;0.40;;;14.90;99.90;;;;;;5032549;28;20441;-65
2022/10/25 08:44:20;;;;;;;0.40;0.40;;;14.90;99.90;;;;;;5033364;28;20473;-66
2022/10/25 08:47:16;;;;;;;0.40;0.40;;;15.00;99.90;;;;;;5035868;28;20429;-67
2022/10/25 08:50:10;;;;;;;0.40;0.40;;;15.10;99.90;;;;;;5029125;28;20969;-66
2022/10/25 08:53:03;;;;;;;0.40;0.40;;;15.20;99.90;;;;;;5017910;28;20446;-66
2022/10/25 08:55:51;;;;;;;0.40;0.40;;;15.20;99.90;;;;;;5018440;28;20203;-67
2022/10/25 08:59:01;;;;;;;0.40;0.40;;;15.20;99.90;;;;;;5016519;28;20195;-66
2022/10/25 09:01:54;;;;;;;0.40;0.40;;;15.30;99.90;;;;;;5016303;28;20432;-66
2022/10/25 09:04:42;;;;;;;0.40;0.40;;;15.30;99.90;;;;;;5017518;28;20630;-65
2022/10/25 09:08:08;;;;;;;0.40;0.40;;;15.30;99.90;;;;;;5016980;28;20480;-66
2022/10/25 09:11:04;;;;;;;0.40;0.40;;;15.20;99.90;;;;;;4986926;28;20868;-66
2022/10/25 09:13:57;;;;;;;0.40;0.40;;;15.20;99.90;;;;;;5016566;28;20233;-66
2022/10/25 09:16:50;;;;;;;0.40;0.40;;;15.20;99.90;;;;;;5016945;28;20975;-66
2022/10/25 09:19:45;;;;;;;1.83;1.73;;;15.20;99.90;;;;;;5016065;28;20426;-65
2022/10/25 09:22:42;;;;;;;0.40;0.40;;;15.30;99.90;;;;;;5017053;28;20466;-66
2022/10/25 09:25:40;;;;;;;0.40;0.40;;;15.30;99.90;;;;;;5022113;28;20213;-66
2022/10/25 09:28:41;;;;;;;0.40;0.40;;;15.30;99.90;;;;;;5018140;28;20472;-66
2022/10/25 09:31:35;;;;;;;0.40;0.40;;;15.30;99.90;;;;;;5015716;28;20202;-66
2022/10/25 09:34:27;;;;;;;0.40;0.40;;;15.20;99.90;;;;;;5016344;28;20468;-66
2022/10/25 09:37:20;;;;;;;0.40;0.40;;;15.30;99.90;;;;;;5016860;28;20281;-66
2022/10/25 09:40:12;;;;;;;0.40;0.40;;;15.40;99.90;;;;;;5016628;28;20426;-66
2022/10/25 09:43:07;;;;;;;0.40;0.40;;;15.40;99.90;;;;;;5016385;28;20302;-66
2022/10/25 09:45:59;;;;;;;0.40;0.40;;;15.40;99.90;;;;;;5015750;28;20282;-66
2022/10/25 09:48:54;;;;;;;0.40;0.40;;;15.40;99.90;;;;;;5016779;28;20232;-66
2022/10/25 09:51:50;;;;;;;0.40;0.40;;;15.50;99.90;;;;;;5015656;28;20425;-66
2022/10/25 09:54:44;;;;;;;0.40;0.40;;;15.50;99.90;;;;;;5016743;28;20202;-66
2022/10/25 09:57:32;;;;;;;0.40;0.40;;;15.50;99.90;;;;;;5040024;28;20435;-66
2022/10/25 10:00:21;;;;;;;0.40;0.40;;;15.60;99.90;;;;;;5054581;28;20206;-66
2022/10/25 10:03:11;;;;;;;0.40;0.40;;;15.60;99.90;;;;;;5054793;28;20705;-66
2022/10/25 10:06:02;;;;;;;0.40;0.40;;;15.70;99.90;;;;;;5055595;28;20734;-67
2022/10/25 10:08:56;;;;;;;0.40;0.40;;;15.60;99.90;;;;;;5055131;28;20307;-66
2022/10/25 10:11:47;;;;;;;0.40;0.40;;;15.70;99.90;;;;;;5055477;28;20512;-67
2022/10/25 10:14:40;;;;;;;0.40;0.40;;;15.70;99.90;;;;;;5054783;28;20243;-67
2022/10/25 10:17:31;;;;;;;0.40;0.40;;;15.70;99.90;;;;;;5054665;28;20944;-67
2022/10/25 10:20:19;;;;;;;0.40;0.40;;;15.70;99.90;;;;;;5054890;28;20211;-67
2022/10/25 10:23:14;;;;;;;0.40;0.40;;;15.70;99.90;;;;;;5054633;28;20225;-67
2022/10/25 10:26:08;;;;;;;0.40;0.40;;;15.70;99.90;;;;;;5055106;28;20331;-67
2022/10/25 10:29:05;;;;;;;0.40;0.40;;;15.70;99.90;;;;;;5053906;28;20464;-67
2022/10/25 10:31:59;;;;;;;0.40;0.40;;;15.80;99.90;;;;;;5055265;28;20202;-67
2022/10/25 10:34:53;;;;;;;0.90;0.90;;;15.80;99.90;;;;;;5055190;28;20593;-66
2022/10/25 10:37:41;;;;;;;1.33;1.33;;;15.80;99.90;;;;;;5068183;28;20227;-67
2022/10/25 10:40:29;;;;;;;0.40;0.40;;;15.90;99.90;;;;;;5073880;28;20193;-66
2022/10/25 10:43:27;;;;;;;0.40;0.40;;;15.90;99.90;;;;;;5074430;28;20225;-67
2022/10/25 10:46:18;;;;;;;1.40;1.27;;;16.00;99.90;;;;;;5075120;28;20197;-66
2022/10/25 10:49:09;;;;;;;0.50;0.50;;;16.10;99.90;;;;;;5075604;28;20249;-66
2022/10/25 10:52:01;;;;;;;0.40;0.40;;;16.10;99.90;;;;;;5074590;28;20265;-66
2022/10/25 10:54:51;;;;;;;0.50;0.50;;;16.20;99.90;;;;;;5074393;28;20233;-66
2022/10/25 10:57:39;;;;;;;0.53;0.53;;;16.20;99.90;;;;;;5074232;28;20228;-67
2022/10/25 11:00:30;;;;;;;0.43;0.43;;;16.30;99.90;;;;;;5073576;28;20732;-69
2022/10/25 11:03:47;;;;;;;0.40;0.40;;;16.30;99.90;;;;;;5072705;28;20264;-66
2022/10/25 11:06:47;;;;;;;0.40;0.40;;;16.40;99.90;;;;;;5071261;28;20209;-66
2022/10/25 11:09:36;;;;;;;0.40;0.40;;;16.50;99.90;;;;;;5069829;28;20221;-67
2022/10/25 11:12:24;;;;;;;2.75;1.25;;;16.50;99.90;;;;;;5071168;28;20216;-66
2022/10/25 11:15:13;;;;;;;0.70;0.70;;;16.60;99.90;;;;;;5063539;28;20276;-66
2022/10/25 11:18:05;;;;;;;0.40;0.40;;;16.70;99.90;;;;;;5055093;28;20225;-67
2022/10/25 11:20:58;;;;;;;0.40;0.40;;;16.80;99.90;;;;;;5055420;28;20271;-66
2022/10/25 11:23:59;;;;;;;0.40;0.40;;;16.90;99.90;;;;;;5055835;28;20221;-66
2022/10/25 11:26:56;;;;;;;0.60;0.60;;;16.90;99.90;;;;;;5054641;28;20645;-66
2022/10/25 11:30:10;;;;;;;0.60;0.60;;;17.00;99.90;;;;;;5053760;28;20220;-65
2022/10/25 11:33:16;;;;;;;0.43;0.43;;;17.10;99.90;;;;;;5052846;28;20249;-66
2022/10/25 11:36:20;;;;;;;0.40;0.40;;;17.10;99.90;;;;;;5053416;28;20284;-66
2022/10/25 11:39:22;;;;;;;0.40;0.40;;;17.10;99.90;;;;;;5052865;28;20204;-65
2022/10/25 11:42:34;;;;;;;0.40;0.40;;;17.30;99.90;;;;;;5052509;28;20208;-66
2022/10/25 11:45:34;;;;;;;0.30;0.30;;;17.20;99.90;;;;;;5052583;28;20229;-66
2022/10/25 11:48:41;;;;;;;0.40;0.40;;;17.40;99.90;;;;;;5053574;28;20202;-65
2022/10/25 11:51:42;;;;;;;0.40;0.40;;;17.40;99.90;;;;;;5053221;28;20227;-67
2022/10/25 11:54:38;;;;;;;0.40;0.40;;;17.40;99.90;;;;;;5053126;28;20204;-65
2022/10/25 11:57:39;;;;;;;0.50;0.50;;;17.40;99.90;;;;;;5053193;28;20201;-67
2022/10/25 12:00:39;;;;;;;0.40;0.40;;;17.40;99.90;;;;;;5052789;28;20288;-66
2022/10/25 12:03:40;;;;;;;0.40;0.40;;;17.40;99.90;;;;;;5053114;28;20217;-66
2022/10/25 12:06:37;;;;;;;0.40;0.40;;;17.30;99.90;;;;;;5053541;28;20583;-65
2022/10/25 12:09:34;;;;;;;0.40;0.40;;;17.20;99.90;;;;;;5052423;28;20697;-66
2022/10/25 12:12:29;;;;;;;1.45;1.35;;;17.10;99.90;;;;;;5052229;28;20204;-65
2022/10/25 12:15:22;;;;;;;0.30;0.30;;;17.20;99.90;;;;;;5052639;28;20205;-65
2022/10/25 12:18:14;;;;;;;0.68;0.47;;;17.30;99.90;;;;;;5052780;28;20201;-65
2022/10/25 12:21:04;;;;;;;0.32;0.32;;;17.40;99.90;;;;;;5053482;28;20335;-66
2022/10/25 12:23:54;;;;;;;0.40;0.40;;;17.50;99.90;;;;;;5052649;28;20300;-67
2022/10/25 12:26:44;;;;;;;1.83;1.73;;;17.60;99.90;;;;;;5052553;28;20204;-65
2022/10/25 12:29:37;;;;;;;0.40;0.40;;;17.70;99.90;;;;;;5052705;28;20209;-66
2022/10/25 12:32:33;;;;;;;0.50;0.50;;;17.60;99.90;;;;;;5053280;28;20241;-68
2022/10/25 12:35:24;;;;;;;0.40;0.40;;;17.40;99.90;;;;;;5052998;28;20203;-65
2022/10/25 12:38:18;;;;;;;1.02;0.82;;;17.30;99.90;;;;;;5052653;28;20208;-65
2022/10/25 12:41:09;;;;;;;0.30;0.30;;;17.20;99.90;;;;;;5051893;28;20575;-67
2022/10/25 12:44:12;;;;;;;0.40;0.40;;;17.20;99.90;;;;;;5053235;28;20607;-66
2022/10/25 12:47:29;;;;;;;0.40;0.40;;;17.20;99.90;;;;;;5053108;28;20197;-66
2022/10/25 12:50:30;;;;;;;0.40;0.40;;;17.20;99.90;;;;;;5051940;28;20213;-65
2022/10/25 12:53:50;;;;;;;0.40;0.40;;;17.10;99.90;;;;;;5052413;28;20232;-66
2022/10/25 12:56:54;;;;;;;0.40;0.40;;;17.10;99.90;;;;;;5052248;28;20285;-66
2022/10/25 12:59:56;;;;;;;0.40;0.40;;;17.10;99.90;;;;;;5052187;28;20203;-65
2022/10/25 13:03:30;;;;;;;0.63;0.63;;;17.00;99.90;;;;;;5051331;28;20223;-65
2022/10/25 13:06:38;;;;;;;0.40;0.40;;;16.90;99.90;;;;;;5051693;28;20263;-66
2022/10/25 13:09:31;;;;;;;0.50;0.50;;;16.90;99.90;;;;;;5051681;28;20232;-65
2022/10/25 13:12:25;;;;;;;0.40;0.40;;;16.70;99.90;;;;;;5052307;28;20201;-66
2022/10/25 13:15:18;;;;;;;0.40;0.40;;;16.70;99.90;;;;;;5052289;28;20197;-66
2022/10/25 13:18:24;;;;;;;0.80;0.80;;;16.60;99.90;;;;;;5051954;28;20208;-65
2022/10/25 13:21:14;;;;;;;0.40;0.40;;;16.30;99.90;;;;;;5050779;28;20203;-66
2022/10/25 13:24:04;;;;;;;1.10;1.00;;;15.60;99.90;;;;;;5050686;28;20220;-66
2022/10/25 13:27:18;;;;;;;0.82;0.82;;;15.10;99.90;;;;;;5051472;28;20229;-65
2022/10/25 13:30:27;;;;;;;0.40;0.40;;;14.70;99.90;;;;;;5054237;28;20223;-65
2022/10/25 13:33:32;;;;;;;0.40;0.40;;;14.40;99.90;;;;;;5054819;28;20233;-66
2022/10/25 13:36:48;;;;;;;0.40;0.40;;;14.30;99.90;;;;;;5055155;28;20587;-66
2022/10/25 13:39:42;;;;;;;0.40;0.40;;;14.30;99.90;;;;;;5054059;28;20208;-66
2022/10/25 13:42:33;;;;;;;0.40;0.40;;;14.30;99.90;;;;;;5055271;28;20819;-65
2022/10/25 13:45:27;;;;;;;0.40;0.40;;;14.30;99.90;;;;;;5054298;28;20424;-66
2022/10/25 13:48:28;;;;;;;0.40;0.40;;;14.30;99.90;;;;;;5055653;28;20193;-67
2022/10/25 13:51:17;;;;;;;0.40;0.40;;;14.70;99.90;;;;;;5053804;28;20486;-67
2022/10/25 13:54:11;;;;;;;0.40;0.40;;;14.30;99.90;;;;;;5054656;28;20814;-67
2022/10/25 13:56:59;;;;;;;0.40;0.40;;;14.30;99.90;;;;;;5054723;28;20482;-67
2022/10/25 14:00:01;;;;;;;0.40;0.40;;;14.30;99.90;;;;;;5055118;28;20944;-67
2022/10/25 14:03:04;;;;;;;0.40;0.40;;;14.30;99.90;;;;;;5054746;28;20435;-67
2022/10/25 14:06:23;;;;;;;0.40;0.40;;;14.30;99.90;;;;;;5054986;28;20201;-67
2022/10/25 14:09:27;;;;;;;0.40;0.40;;;14.30;99.90;;;;;;5054248;28;20510;-67
2022/10/25 14:12:17;;;;;;;0.40;0.40;;;14.30;99.90;;;;;;5054134;28;20784;-67
2022/10/25 14:15:14;;;;;;;0.40;0.40;;;14.30;99.90;;;;;;5054260;28;20975;-67
2022/10/25 14:18:07;;;;;;;0.40;0.40;;;14.30;99.90;;;;;;5054329;28;20511;-67
2022/10/25 14:20:58;;;;;;;0.40;0.40;;;14.20;99.90;;;;;;5054127;28;20424;-67
2022/10/25 14:23:49;;;;;;;0.40;0.40;;;14.30;99.90;;;;;;5055972;28;20444;-67
2022/10/25 14:26:48;;;;;;;0.40;0.40;;;14.30;99.90;;;;;;5056125;28;20425;-67
2022/10/25 14:29:36;;;;;;;0.40;0.40;;;14.30;99.90;;;;;;5054702;28;20963;-67
2022/10/25 14:32:24;;;;;;;0.40;0.40;;;14.40;99.90;;;;;;5053905;28;20427;-67
2022/10/25 14:35:13;;;;;;;0.40;0.40;;;14.40;99.90;;;;;;5053929;28;20208;-67
2022/10/25 14:38:02;;;;;;;0.40;0.40;;;14.40;99.90;;;;;;5053283;28;20435;-67
2022/10/25 14:40:52;;;;;;;0.40;0.40;;;14.50;99.90;;;;;;5053381;28;20282;-66
2022/10/25 14:43:41;;;;;;;0.40;0.40;;;14.70;99.90;;;;;;5053909;28;20235;-67
2022/10/25 14:46:32;;;;;;;0.40;0.40;;;14.80;99.90;;;;;;5053507;28;20197;-67
2022/10/25 14:49:21;;;;;;;0.40;0.40;;;14.90;99.90;;;;;;5053110;28;20452;-67
2022/10/25 14:52:09;;;;;;;0.40;0.40;;;14.80;99.90;;;;;;5053577;28;20605;-67
2022/10/25 14:55:00;;;;;;;0.40;0.40;;;14.90;99.90;;;;;;5053828;28;20233;-67
2022/10/25 14:57:48;;;;;;;0.40;0.40;;;14.90;99.90;;;;;;5052352;28;20205;-66
2022/10/25 15:00:37;;;;;;;0.50;0.50;;;14.90;99.90;;;;;;5052688;28;20198;-67